Rock Spring, Georgia
Current Conditions -  °F | °C
As of 12:53 PM on Monday 24 Nov 2014 (Local Time) from KCHA Reporting Station
Scattered Clouds Scattered Clouds  
Wind Chill: 70°   Ceiling: Unl
Heat Index: 70°   Visibility: 10mi
Dew Point: 48°   Wind: 20mph
Humidity: 46%   Direction: 240°WSW
Pressure: 29.75"   Gusts: 33mph
Location:  34.82°N, 85.24°W
Report Text: KCHA 241753Z 24017G29KT 10SM SCT050 SCT250 21/09 A2975 RMK AO2 PK WND 22029/1748 SLP070 T02110089 10217 20161 50003
Loading
Personal Weather Stations






























Interactive Weather Map New forecast layout! Learn more

10-Day Weather Forecast

Advertisements
Track Severe Weather on mobile